sensor_id;sensor_type;location;lat;lon;timestamp;P1;durP1;ratioP1;P2;durP2;ratioP2
69991;SDS011;57332;51.320;-0.580;2023-02-04T00:01:16;4.13;;;1.77;;
69991;SDS011;57332;51.320;-0.580;2023-02-04T00:03:43;4.57;;;2.40;;
69991;SDS011;57332;51.320;-0.580;2023-02-04T00:06:10;4.68;;;1.95;;
69991;SDS011;57332;51.320;-0.580;2023-02-04T00:08:36;5.03;;;2.22;;
69991;SDS011;57332;51.320;-0.580;2023-02-04T00:11:03;6.35;;;2.40;;
69991;SDS011;57332;51.320;-0.580;2023-02-04T00:13:30;6.80;;;2.22;;
69991;SDS011;57332;51.320;-0.580;2023-02-04T00:15:57;8.35;;;2.70;;
69991;SDS011;57332;51.320;-0.580;2023-02-04T00:18:24;6.15;;;2.33;;
69991;SDS011;57332;51.320;-0.580;2023-02-04T00:20:51;6.90;;;2.20;;
69991;SDS011;57332;51.320;-0.580;2023-02-04T00:23:18;5.38;;;2.22;;
69991;SDS011;57332;51.320;-0.580;2023-02-04T00:25:45;6.35;;;1.80;;
69991;SDS011;57332;51.320;-0.580;2023-02-04T00:28:12;4.13;;;2.22;;
69991;SDS011;57332;51.320;-0.580;2023-02-04T00:30:39;5.47;;;2.47;;
69991;SDS011;57332;51.320;-0.580;2023-02-04T00:33:05;7.85;;;2.45;;
69991;SDS011;57332;51.320;-0.580;2023-02-04T00:35:32;5.40;;;2.53;;
69991;SDS011;57332;51.320;-0.580;2023-02-04T00:37:59;7.50;;;2.40;;
69991;SDS011;57332;51.320;-0.580;2023-02-04T00:40:26;5.65;;;2.40;;
69991;SDS011;57332;51.320;-0.580;2023-02-04T00:42:54;4.50;;;2.05;;
69991;SDS011;57332;51.320;-0.580;2023-02-04T00:45:21;4.70;;;2.17;;
69991;SDS011;57332;51.320;-0.580;2023-02-04T00:47:48;6.13;;;2.47;;
69991;SDS011;57332;51.320;-0.580;2023-02-04T00:50:15;5.43;;;2.33;;
69991;SDS011;57332;51.320;-0.580;2023-02-04T00:52:42;4.20;;;2.60;;
69991;SDS011;57332;51.320;-0.580;2023-02-04T00:55:09;6.13;;;2.45;;
69991;SDS011;57332;51.320;-0.580;2023-02-04T00:57:37;6.20;;;2.38;;
69991;SDS011;57332;51.320;-0.580;2023-02-04T01:00:04;4.85;;;2.25;;
69991;SDS011;57332;51.320;-0.580;2023-02-04T01:02:31;6.65;;;2.05;;
69991;SDS011;57332;51.320;-0.580;2023-02-04T01:04:59;5.00;;;2.13;;
69991;SDS011;57332;51.320;-0.580;2023-02-04T01:07:25;6.80;;;2.40;;
69991;SDS011;57332;51.320;-0.580;2023-02-04T01:09:52;4.95;;;2.28;;
69991;SDS011;57332;51.320;-0.580;2023-02-04T01:12:19;6.38;;;2.30;;
69991;SDS011;57332;51.320;-0.580;2023-02-04T01:14:48;5.03;;;2.40;;
69991;SDS011;57332;51.320;-0.580;2023-02-04T01:17:15;4.25;;;2.10;;
69991;SDS011;57332;51.320;-0.580;2023-02-04T01:19:43;4.40;;;2.42;;
69991;SDS011;57332;51.320;-0.580;2023-02-04T01:22:10;5.35;;;2.42;;
69991;SDS011;57332;51.320;-0.580;2023-02-04T01:24:37;5.53;;;2.60;;
69991;SDS011;57332;51.320;-0.580;2023-02-04T01:27:04;6.78;;;2.22;;
69991;SDS011;57332;51.320;-0.580;2023-02-04T01:29:31;5.40;;;2.40;;
69991;SDS011;57332;51.320;-0.580;2023-02-04T01:31:58;5.20;;;2.47;;
69991;SDS011;57332;51.320;-0.580;2023-02-04T01:34:25;6.05;;;2.50;;
69991;SDS011;57332;51.320;-0.580;2023-02-04T01:36:52;8.18;;;2.42;;
69991;SDS011;57332;51.320;-0.580;2023-02-04T01:39:18;4.88;;;2.33;;
69991;SDS011;57332;51.320;-0.580;2023-02-04T01:41:45;5.85;;;2.97;;
69991;SDS011;57332;51.320;-0.580;2023-02-04T01:44:12;7.15;;;2.80;;
69991;SDS011;57332;51.320;-0.580;2023-02-04T01:46:39;8.10;;;2.70;;
69991;SDS011;57332;51.320;-0.580;2023-02-04T01:49:06;6.95;;;2.80;;
69991;SDS011;57332;51.320;-0.580;2023-02-04T01:51:33;7.18;;;2.92;;
69991;SDS011;57332;51.320;-0.580;2023-02-04T01:54:00;7.15;;;2.92;;
69991;SDS011;57332;51.320;-0.580;2023-02-04T01:56:28;6.93;;;2.67;;
69991;SDS011;57332;51.320;-0.580;2023-02-04T01:58:56;5.78;;;2.50;;
69991;SDS011;57332;51.320;-0.580;2023-02-04T02:01:36;5.97;;;2.30;;
69991;SDS011;57332;51.320;-0.580;2023-02-04T02:04:04;5.53;;;2.47;;
69991;SDS011;57332;51.320;-0.580;2023-02-04T02:06:31;5.95;;;2.78;;
69991;SDS011;57332;51.320;-0.580;2023-02-04T02:08:58;5.72;;;2.40;;
69991;SDS011;57332;51.320;-0.580;2023-02-04T02:11:25;4.82;;;2.30;;
69991;SDS011;57332;51.320;-0.580;2023-02-04T02:13:52;6.22;;;2.72;;
69991;SDS011;57332;51.320;-0.580;2023-02-04T02:16:19;6.15;;;1.90;;
69991;SDS011;57332;51.320;-0.580;2023-02-04T02:18:46;5.25;;;2.35;;
69991;SDS011;57332;51.320;-0.580;2023-02-04T02:21:13;5.38;;;2.38;;
69991;SDS011;57332;51.320;-0.580;2023-02-04T02:26:15;4.45;;;2.53;;
69991;SDS011;57332;51.320;-0.580;2023-02-04T02:28:45;5.35;;;2.83;;
69991;SDS011;57332;51.320;-0.580;2023-02-04T02:31:13;4.68;;;2.47;;
69991;SDS011;57332;51.320;-0.580;2023-02-04T02:33:41;4.75;;;2.40;;
69991;SDS011;57332;51.320;-0.580;2023-02-04T02:36:08;5.22;;;2.40;;
69991;SDS011;57332;51.320;-0.580;2023-02-04T02:38:35;5.15;;;2.53;;
69991;SDS011;57332;51.320;-0.580;2023-02-04T02:41:02;6.03;;;2.58;;
69991;SDS011;57332;51.320;-0.580;2023-02-04T02:43:30;4.93;;;2.50;;
69991;SDS011;57332;51.320;-0.580;2023-02-04T02:45:57;5.38;;;2.38;;
69991;SDS011;57332;51.320;-0.580;2023-02-04T02:48:25;5.38;;;2.20;;
69991;SDS011;57332;51.320;-0.580;2023-02-04T02:50:52;6.13;;;2.67;;
69991;SDS011;57332;51.320;-0.580;2023-02-04T02:53:19;5.38;;;2.40;;
69991;SDS011;57332;51.320;-0.580;2023-02-04T02:55:46;7.32;;;2.88;;
69991;SDS011;57332;51.320;-0.580;2023-02-04T03:00:49;7.20;;;2.90;;
69991;SDS011;57332;51.320;-0.580;2023-02-04T03:03:17;4.05;;;2.35;;
69991;SDS011;57332;51.320;-0.580;2023-02-04T03:05:46;6.88;;;2.85;;
69991;SDS011;57332;51.320;-0.580;2023-02-04T03:08:13;5.97;;;2.95;;
69991;SDS011;57332;51.320;-0.580;2023-02-04T03:10:41;5.70;;;2.90;;
69991;SDS011;57332;51.320;-0.580;2023-02-04T03:13:08;5.95;;;2.75;;
69991;SDS011;57332;51.320;-0.580;2023-02-04T03:15:36;4.72;;;2.60;;
69991;SDS011;57332;51.320;-0.580;2023-02-04T03:18:03;6.07;;;2.72;;
69991;SDS011;57332;51.320;-0.580;2023-02-04T03:20:30;6.03;;;3.08;;
69991;SDS011;57332;51.320;-0.580;2023-02-04T03:22:57;6.53;;;2.85;;
69991;SDS011;57332;51.320;-0.580;2023-02-04T03:25:24;7.20;;;3.08;;
69991;SDS011;57332;51.320;-0.580;2023-02-04T03:27:55;7.53;;;3.22;;
69991;SDS011;57332;51.320;-0.580;2023-02-04T03:30:23;5.95;;;3.03;;
69991;SDS011;57332;51.320;-0.580;2023-02-04T03:32:50;7.43;;;2.80;;
69991;SDS011;57332;51.320;-0.580;2023-02-04T03:35:17;6.53;;;3.30;;
69991;SDS011;57332;51.320;-0.580;2023-02-04T03:37:46;6.32;;;3.17;;
69991;SDS011;57332;51.320;-0.580;2023-02-04T03:40:13;6.38;;;3.00;;
69991;SDS011;57332;51.320;-0.580;2023-02-04T03:42:40;7.50;;;3.22;;
69991;SDS011;57332;51.320;-0.580;2023-02-04T03:45:07;6.18;;;2.90;;
69991;SDS011;57332;51.320;-0.580;2023-02-04T03:47:35;6.47;;;3.17;;
69991;SDS011;57332;51.320;-0.580;2023-02-04T03:50:03;7.15;;;3.15;;
69991;SDS011;57332;51.320;-0.580;2023-02-04T03:52:31;7.28;;;3.20;;
69991;SDS011;57332;51.320;-0.580;2023-02-04T03:54:58;5.93;;;2.90;;
69991;SDS011;57332;51.320;-0.580;2023-02-04T03:57:25;6.05;;;3.25;;
69991;SDS011;57332;51.320;-0.580;2023-02-04T03:59:52;6.13;;;3.15;;
69991;SDS011;57332;51.320;-0.580;2023-02-04T04:02:19;9.35;;;3.38;;
69991;SDS011;57332;51.320;-0.580;2023-02-04T04:04:46;7.57;;;3.08;;
69991;SDS011;57332;51.320;-0.580;2023-02-04T04:07:13;7.40;;;3.00;;
69991;SDS011;57332;51.320;-0.580;2023-02-04T04:09:39;7.57;;;3.63;;
69991;SDS011;57332;51.320;-0.580;2023-02-04T04:12:06;7.97;;;3.70;;
69991;SDS011;57332;51.320;-0.580;2023-02-04T04:14:33;6.95;;;3.17;;
69991;SDS011;57332;51.320;-0.580;2023-02-04T04:17:00;6.65;;;3.20;;
69991;SDS011;57332;51.320;-0.580;2023-02-04T04:19:27;8.75;;;3.10;;
69991;SDS011;57332;51.320;-0.580;2023-02-04T04:21:54;5.68;;;2.83;;
69991;SDS011;57332;51.320;-0.580;2023-02-04T04:24:21;5.80;;;2.80;;
69991;SDS011;57332;51.320;-0.580;2023-02-04T04:26:47;8.18;;;3.20;;
69991;SDS011;57332;51.320;-0.580;2023-02-04T04:29:14;6.70;;;3.03;;
69991;SDS011;57332;51.320;-0.580;2023-02-04T04:31:41;7.60;;;3.10;;
69991;SDS011;57332;51.320;-0.580;2023-02-04T04:34:09;6.93;;;3.00;;
69991;SDS011;57332;51.320;-0.580;2023-02-04T04:36:36;6.70;;;2.85;;
69991;SDS011;57332;51.320;-0.580;2023-02-04T04:39:03;7.63;;;3.13;;
69991;SDS011;57332;51.320;-0.580;2023-02-04T04:41:30;5.18;;;2.58;;
69991;SDS011;57332;51.320;-0.580;2023-02-04T04:43:56;5.13;;;2.55;;
69991;SDS011;57332;51.320;-0.580;2023-02-04T04:46:23;6.22;;;2.60;;
69991;SDS011;57332;51.320;-0.580;2023-02-04T04:48:50;5.55;;;2.40;;
69991;SDS011;57332;51.320;-0.580;2023-02-04T04:51:17;4.90;;;2.80;;
69991;SDS011;57332;51.320;-0.580;2023-02-04T04:53:44;8.73;;;2.80;;
69991;SDS011;57332;51.320;-0.580;2023-02-04T04:56:11;4.82;;;2.33;;
69991;SDS011;57332;51.320;-0.580;2023-02-04T04:58:37;4.50;;;2.60;;
69991;SDS011;57332;51.320;-0.580;2023-02-04T05:01:04;5.80;;;2.50;;
69991;SDS011;57332;51.320;-0.580;2023-02-04T05:03:31;4.82;;;2.55;;
69991;SDS011;57332;51.320;-0.580;2023-02-04T05:05:58;5.65;;;2.45;;
69991;SDS011;57332;51.320;-0.580;2023-02-04T05:08:25;4.70;;;2.40;;
69991;SDS011;57332;51.320;-0.580;2023-02-04T05:10:52;5.20;;;2.35;;
69991;SDS011;57332;51.320;-0.580;2023-02-04T05:13:19;4.35;;;2.40;;
69991;SDS011;57332;51.320;-0.580;2023-02-04T05:15:45;4.63;;;2.10;;
69991;SDS011;57332;51.320;-0.580;2023-02-04T05:18:12;5.03;;;2.13;;
69991;SDS011;57332;51.320;-0.580;2023-02-04T05:20:39;5.18;;;2.17;;
69991;SDS011;57332;51.320;-0.580;2023-02-04T05:23:06;5.00;;;2.20;;
69991;SDS011;57332;51.320;-0.580;2023-02-04T05:25:33;4.65;;;2.50;;
69991;SDS011;57332;51.320;-0.580;2023-02-04T05:28:00;5.15;;;2.33;;
69991;SDS011;57332;51.320;-0.580;2023-02-04T05:30:27;4.45;;;2.00;;
69991;SDS011;57332;51.320;-0.580;2023-02-04T05:32:54;4.75;;;2.10;;
69991;SDS011;57332;51.320;-0.580;2023-02-04T05:35:20;3.58;;;1.90;;
69991;SDS011;57332;51.320;-0.580;2023-02-04T05:37:47;4.78;;;2.17;;
69991;SDS011;57332;51.320;-0.580;2023-02-04T05:40:14;3.95;;;1.70;;
69991;SDS011;57332;51.320;-0.580;2023-02-04T05:42:41;5.03;;;1.90;;
69991;SDS011;57332;51.320;-0.580;2023-02-04T05:45:09;3.97;;;2.15;;
69991;SDS011;57332;51.320;-0.580;2023-02-04T05:47:39;3.42;;;1.90;;
69991;SDS011;57332;51.320;-0.580;2023-02-04T05:50:06;4.97;;;2.10;;
69991;SDS011;57332;51.320;-0.580;2023-02-04T05:52:33;6.03;;;1.73;;
69991;SDS011;57332;51.320;-0.580;2023-02-04T05:55:00;4.72;;;2.13;;
69991;SDS011;57332;51.320;-0.580;2023-02-04T05:57:27;3.83;;;1.73;;
69991;SDS011;57332;51.320;-0.580;2023-02-04T05:59:54;3.80;;;1.90;;
69991;SDS011;57332;51.320;-0.580;2023-02-04T06:02:21;3.80;;;1.75;;
69991;SDS011;57332;51.320;-0.580;2023-02-04T06:04:47;4.55;;;1.98;;
69991;SDS011;57332;51.320;-0.580;2023-02-04T06:07:14;4.40;;;1.90;;
69991;SDS011;57332;51.320;-0.580;2023-02-04T06:09:41;3.97;;;1.60;;
69991;SDS011;57332;51.320;-0.580;2023-02-04T06:12:08;3.63;;;2.00;;
69991;SDS011;57332;51.320;-0.580;2023-02-04T06:14:36;2.90;;;1.73;;
69991;SDS011;57332;51.320;-0.580;2023-02-04T06:17:02;5.90;;;1.80;;
69991;SDS011;57332;51.320;-0.580;2023-02-04T06:19:29;3.78;;;1.83;;
69991;SDS011;57332;51.320;-0.580;2023-02-04T06:21:56;3.55;;;1.65;;
69991;SDS011;57332;51.320;-0.580;2023-02-04T06:24:23;4.07;;;2.10;;
69991;SDS011;57332;51.320;-0.580;2023-02-04T06:26:50;3.90;;;1.67;;
69991;SDS011;57332;51.320;-0.580;2023-02-04T06:29:17;5.72;;;1.58;;
69991;SDS011;57332;51.320;-0.580;2023-02-04T06:31:44;4.13;;;1.70;;
69991;SDS011;57332;51.320;-0.580;2023-02-04T06:34:11;4.50;;;1.65;;
69991;SDS011;57332;51.320;-0.580;2023-02-04T06:36:38;3.38;;;1.50;;
69991;SDS011;57332;51.320;-0.580;2023-02-04T06:39:04;3.03;;;1.48;;
69991;SDS011;57332;51.320;-0.580;2023-02-04T06:41:31;3.30;;;1.63;;
69991;SDS011;57332;51.320;-0.580;2023-02-04T06:43:58;5.78;;;1.50;;
69991;SDS011;57332;51.320;-0.580;2023-02-04T06:46:25;2.80;;;1.33;;
69991;SDS011;57332;51.320;-0.580;2023-02-04T06:48:52;2.13;;;1.08;;
69991;SDS011;57332;51.320;-0.580;2023-02-04T06:51:19;2.47;;;1.38;;
69991;SDS011;57332;51.320;-0.580;2023-02-04T06:53:45;2.70;;;1.30;;
69991;SDS011;57332;51.320;-0.580;2023-02-04T06:56:12;2.90;;;1.50;;
69991;SDS011;57332;51.320;-0.580;2023-02-04T06:58:39;2.92;;;1.40;;
69991;SDS011;57332;51.320;-0.580;2023-02-04T07:01:06;2.95;;;1.35;;
69991;SDS011;57332;51.320;-0.580;2023-02-04T07:03:33;3.67;;;1.15;;
69991;SDS011;57332;51.320;-0.580;2023-02-04T07:06:00;3.38;;;1.65;;
69991;SDS011;57332;51.320;-0.580;2023-02-04T07:08:27;3.33;;;1.52;;
69991;SDS011;57332;51.320;-0.580;2023-02-04T07:10:53;4.07;;;1.75;;
69991;SDS011;57332;51.320;-0.580;2023-02-04T07:13:20;3.80;;;1.63;;
69991;SDS011;57332;51.320;-0.580;2023-02-04T07:15:47;4.22;;;1.48;;
69991;SDS011;57332;51.320;-0.580;2023-02-04T07:18:15;2.85;;;1.50;;
69991;SDS011;57332;51.320;-0.580;2023-02-04T07:20:42;3.90;;;1.45;;
69991;SDS011;57332;51.320;-0.580;2023-02-04T07:23:09;5.03;;;1.52;;
69991;SDS011;57332;51.320;-0.580;2023-02-04T07:25:36;3.80;;;1.55;;
69991;SDS011;57332;51.320;-0.580;2023-02-04T07:28:04;3.38;;;1.58;;
69991;SDS011;57332;51.320;-0.580;2023-02-04T07:30:31;4.45;;;1.70;;
69991;SDS011;57332;51.320;-0.580;2023-02-04T07:32:59;4.53;;;1.67;;
69991;SDS011;57332;51.320;-0.580;2023-02-04T07:35:26;6.22;;;1.80;;
69991;SDS011;57332;51.320;-0.580;2023-02-04T07:37:52;3.55;;;1.35;;
69991;SDS011;57332;51.320;-0.580;2023-02-04T07:40:19;3.47;;;1.60;;
69991;SDS011;57332;51.320;-0.580;2023-02-04T07:42:47;4.22;;;1.52;;
69991;SDS011;57332;51.320;-0.580;2023-02-04T07:45:14;4.13;;;1.52;;
69991;SDS011;57332;51.320;-0.580;2023-02-04T07:47:41;3.17;;;1.63;;
69991;SDS011;57332;51.320;-0.580;2023-02-04T07:50:08;4.40;;;1.60;;
69991;SDS011;57332;51.320;-0.580;2023-02-04T07:52:35;3.22;;;1.50;;
69991;SDS011;57332;51.320;-0.580;2023-02-04T07:55:02;3.80;;;1.52;;
69991;SDS011;57332;51.320;-0.580;2023-02-04T07:57:29;3.05;;;1.73;;
69991;SDS011;57332;51.320;-0.580;2023-02-04T07:59:56;2.60;;;1.40;;
69991;SDS011;57332;51.320;-0.580;2023-02-04T08:02:23;3.03;;;1.08;;
69991;SDS011;57332;51.320;-0.580;2023-02-04T08:04:50;3.92;;;1.50;;
69991;SDS011;57332;51.320;-0.580;2023-02-04T08:07:17;3.38;;;1.38;;
69991;SDS011;57332;51.320;-0.580;2023-02-04T08:09:44;2.53;;;1.23;;
69991;SDS011;57332;51.320;-0.580;2023-02-04T08:12:12;4.53;;;1.55;;
69991;SDS011;57332;51.320;-0.580;2023-02-04T08:14:39;3.33;;;1.27;;
69991;SDS011;57332;51.320;-0.580;2023-02-04T08:17:06;3.15;;;1.40;;
69991;SDS011;57332;51.320;-0.580;2023-02-04T08:19:32;3.08;;;1.25;;
69991;SDS011;57332;51.320;-0.580;2023-02-04T08:21:59;5.35;;;1.65;;
69991;SDS011;57332;51.320;-0.580;2023-02-04T08:24:26;4.40;;;1.52;;
69991;SDS011;57332;51.320;-0.580;2023-02-04T08:26:53;3.78;;;1.30;;
69991;SDS011;57332;51.320;-0.580;2023-02-04T08:29:20;4.20;;;1.45;;
69991;SDS011;57332;51.320;-0.580;2023-02-04T08:31:48;4.68;;;1.33;;
69991;SDS011;57332;51.320;-0.580;2023-02-04T08:34:14;4.68;;;1.77;;
69991;SDS011;57332;51.320;-0.580;2023-02-04T08:36:41;3.42;;;1.40;;
69991;SDS011;57332;51.320;-0.580;2023-02-04T08:39:10;3.20;;;1.40;;
69991;SDS011;57332;51.320;-0.580;2023-02-04T08:41:38;4.80;;;1.67;;
69991;SDS011;57332;51.320;-0.580;2023-02-04T08:44:04;5.32;;;1.80;;
69991;SDS011;57332;51.320;-0.580;2023-02-04T08:46:31;5.50;;;2.15;;
69991;SDS011;57332;51.320;-0.580;2023-02-04T08:48:58;4.18;;;1.70;;
69991;SDS011;57332;51.320;-0.580;2023-02-04T08:51:25;2.60;;;1.38;;
69991;SDS011;57332;51.320;-0.580;2023-02-04T08:53:52;3.35;;;1.63;;
69991;SDS011;57332;51.320;-0.580;2023-02-04T08:56:19;3.20;;;1.40;;
69991;SDS011;57332;51.320;-0.580;2023-02-04T08:58:46;3.83;;;1.35;;
69991;SDS011;57332;51.320;-0.580;2023-02-04T09:01:16;3.42;;;1.58;;
69991;SDS011;57332;51.320;-0.580;2023-02-04T09:03:43;5.68;;;1.70;;
69991;SDS011;57332;51.320;-0.580;2023-02-04T09:06:10;4.95;;;1.48;;
69991;SDS011;57332;51.320;-0.580;2023-02-04T09:08:37;3.65;;;1.48;;
69991;SDS011;57332;51.320;-0.580;2023-02-04T09:11:04;3.22;;;1.52;;
69991;SDS011;57332;51.320;-0.580;2023-02-04T09:13:31;3.28;;;1.60;;
69991;SDS011;57332;51.320;-0.580;2023-02-04T09:15:58;5.55;;;1.60;;
69991;SDS011;57332;51.320;-0.580;2023-02-04T09:18:25;5.25;;;1.30;;
69991;SDS011;57332;51.320;-0.580;2023-02-04T09:20:52;4.82;;;1.40;;
69991;SDS011;57332;51.320;-0.580;2023-02-04T09:23:19;2.53;;;1.20;;
69991;SDS011;57332;51.320;-0.580;2023-02-04T09:25:46;3.67;;;1.40;;
69991;SDS011;57332;51.320;-0.580;2023-02-04T09:28:13;4.68;;;1.20;;
69991;SDS011;57332;51.320;-0.580;2023-02-04T09:30:43;4.80;;;1.40;;
69991;SDS011;57332;51.320;-0.580;2023-02-04T09:33:11;4.97;;;1.40;;
69991;SDS011;57332;51.320;-0.580;2023-02-04T09:35:38;5.15;;;1.48;;
69991;SDS011;57332;51.320;-0.580;2023-02-04T09:38:05;4.60;;;1.23;;
69991;SDS011;57332;51.320;-0.580;2023-02-04T09:40:33;5.10;;;1.33;;
69991;SDS011;57332;51.320;-0.580;2023-02-04T09:43:01;3.83;;;1.20;;
69991;SDS011;57332;51.320;-0.580;2023-02-04T09:45:29;4.97;;;1.50;;
69991;SDS011;57332;51.320;-0.580;2023-02-04T09:47:56;5.53;;;1.38;;
69991;SDS011;57332;51.320;-0.580;2023-02-04T09:50:25;3.92;;;1.33;;
69991;SDS011;57332;51.320;-0.580;2023-02-04T09:52:53;3.80;;;1.27;;
69991;SDS011;57332;51.320;-0.580;2023-02-04T09:55:21;3.55;;;1.35;;
69991;SDS011;57332;51.320;-0.580;2023-02-04T09:57:50;3.85;;;1.33;;
69991;SDS011;57332;51.320;-0.580;2023-02-04T10:00:18;3.30;;;1.42;;
69991;SDS011;57332;51.320;-0.580;2023-02-04T10:02:45;5.75;;;1.63;;
69991;SDS011;57332;51.320;-0.580;2023-02-04T10:05:17;2.92;;;1.40;;
69991;SDS011;57332;51.320;-0.580;2023-02-04T10:07:44;3.67;;;1.60;;
69991;SDS011;57332;51.320;-0.580;2023-02-04T10:10:19;4.25;;;1.40;;
69991;SDS011;57332;51.320;-0.580;2023-02-04T10:12:47;4.45;;;1.80;;
69991;SDS011;57332;51.320;-0.580;2023-02-04T10:15:16;4.57;;;1.80;;
69991;SDS011;57332;51.320;-0.580;2023-02-04T10:17:46;3.35;;;1.92;;
69991;SDS011;57332;51.320;-0.580;2023-02-04T10:20:14;4.90;;;1.67;;
69991;SDS011;57332;51.320;-0.580;2023-02-04T10:22:41;4.55;;;1.42;;
69991;SDS011;57332;51.320;-0.580;2023-02-04T10:25:12;3.53;;;1.13;;
69991;SDS011;57332;51.320;-0.580;2023-02-04T10:27:52;2.42;;;1.10;;
69991;SDS011;57332;51.320;-0.580;2023-02-04T10:30:21;4.00;;;1.17;;
69991;SDS011;57332;51.320;-0.580;2023-02-04T10:32:48;5.03;;;1.60;;
69991;SDS011;57332;51.320;-0.580;2023-02-04T10:35:16;2.15;;;1.15;;
69991;SDS011;57332;51.320;-0.580;2023-02-04T10:37:43;3.10;;;1.17;;
69991;SDS011;57332;51.320;-0.580;2023-02-04T10:40:29;3.15;;;1.20;;
69991;SDS011;57332;51.320;-0.580;2023-02-04T10:42:57;3.90;;;1.20;;
69991;SDS011;57332;51.320;-0.580;2023-02-04T10:45:25;3.40;;;1.40;;
69991;SDS011;57332;51.320;-0.580;2023-02-04T10:47:53;5.85;;;1.30;;
69991;SDS011;57332;51.320;-0.580;2023-02-04T10:50:23;5.03;;;1.30;;
69991;SDS011;57332;51.320;-0.580;2023-02-04T10:52:54;4.50;;;1.20;;
69991;SDS011;57332;51.320;-0.580;2023-02-04T10:55:45;2.50;;;0.85;;
69991;SDS011;57332;51.320;-0.580;2023-02-04T10:58:14;3.53;;;1.20;;
69991;SDS011;57332;51.320;-0.580;2023-02-04T11:00:42;2.25;;;1.25;;
69991;SDS011;57332;51.320;-0.580;2023-02-04T11:03:21;3.25;;;1.20;;
69991;SDS011;57332;51.320;-0.580;2023-02-04T11:05:48;3.70;;;1.02;;
69991;SDS011;57332;51.320;-0.580;2023-02-04T11:08:37;1.70;;;0.93;;
69991;SDS011;57332;51.320;-0.580;2023-02-04T11:11:03;3.58;;;1.05;;
69991;SDS011;57332;51.320;-0.580;2023-02-04T11:13:41;3.33;;;1.10;;
69991;SDS011;57332;51.320;-0.580;2023-02-04T11:16:10;4.20;;;1.10;;
69991;SDS011;57332;51.320;-0.580;2023-02-04T11:18:47;3.75;;;1.40;;
69991;SDS011;57332;51.320;-0.580;2023-02-04T11:21:26;3.15;;;1.15;;
69991;SDS011;57332;51.320;-0.580;2023-02-04T11:26:33;5.05;;;1.67;;
69991;SDS011;57332;51.320;-0.580;2023-02-04T11:31:29;3.03;;;1.38;;
69991;SDS011;57332;51.320;-0.580;2023-02-04T11:34:09;3.88;;;1.50;;
69991;SDS011;57332;51.320;-0.580;2023-02-04T11:39:38;2.78;;;1.10;;
69991;SDS011;57332;51.320;-0.580;2023-02-04T11:47:38;2.30;;;0.82;;
69991;SDS011;57332;51.320;-0.580;2023-02-04T11:52:47;3.13;;;1.08;;
69991;SDS011;57332;51.320;-0.580;2023-02-04T11:55:14;4.05;;;1.00;;
69991;SDS011;57332;51.320;-0.580;2023-02-04T11:57:42;5.38;;;1.08;;
69991;SDS011;57332;51.320;-0.580;2023-02-04T12:00:13;6.85;;;1.23;;
69991;SDS011;57332;51.320;-0.580;2023-02-04T12:02:43;5.28;;;1.20;;
69991;SDS011;57332;51.320;-0.580;2023-02-04T12:05:14;2.40;;;0.95;;
69991;SDS011;57332;51.320;-0.580;2023-02-04T12:07:41;4.68;;;1.27;;
69991;SDS011;57332;51.320;-0.580;2023-02-04T12:12:43;3.95;;;0.80;;
69991;SDS011;57332;51.320;-0.580;2023-02-04T12:15:20;3.70;;;1.15;;
69991;SDS011;57332;51.320;-0.580;2023-02-04T12:17:59;5.45;;;1.30;;
69991;SDS011;57332;51.320;-0.580;2023-02-04T12:20:26;2.22;;;1.10;;
69991;SDS011;57332;51.320;-0.580;2023-02-04T12:22:53;5.65;;;1.23;;
69991;SDS011;57332;51.320;-0.580;2023-02-04T12:25:20;4.18;;;1.25;;
69991;SDS011;57332;51.320;-0.580;2023-02-04T12:27:47;4.75;;;1.33;;
69991;SDS011;57332;51.320;-0.580;2023-02-04T12:30:14;3.65;;;1.20;;
69991;SDS011;57332;51.320;-0.580;2023-02-04T12:32:41;3.78;;;1.17;;
69991;SDS011;57332;51.320;-0.580;2023-02-04T12:35:07;4.63;;;1.23;;
69991;SDS011;57332;51.320;-0.580;2023-02-04T12:37:34;5.28;;;1.58;;
69991;SDS011;57332;51.320;-0.580;2023-02-04T12:40:01;5.85;;;1.45;;
69991;SDS011;57332;51.320;-0.580;2023-02-04T12:42:28;8.80;;;1.90;;
69991;SDS011;57332;51.320;-0.580;2023-02-04T12:44:55;6.72;;;1.83;;
69991;SDS011;57332;51.320;-0.580;2023-02-04T12:47:22;4.32;;;1.40;;
69991;SDS011;57332;51.320;-0.580;2023-02-04T12:49:49;6.53;;;2.00;;
69991;SDS011;57332;51.320;-0.580;2023-02-04T12:52:16;7.55;;;2.03;;
69991;SDS011;57332;51.320;-0.580;2023-02-04T12:54:43;4.30;;;1.70;;
69991;SDS011;57332;51.320;-0.580;2023-02-04T12:57:10;4.82;;;1.83;;
69991;SDS011;57332;51.320;-0.580;2023-02-04T12:59:37;4.75;;;1.85;;
69991;SDS011;57332;51.320;-0.580;2023-02-04T13:02:04;3.70;;;1.55;;
69991;SDS011;57332;51.320;-0.580;2023-02-04T13:04:31;5.72;;;1.92;;
69991;SDS011;57332;51.320;-0.580;2023-02-04T13:06:57;4.47;;;1.55;;
69991;SDS011;57332;51.320;-0.580;2023-02-04T13:09:24;4.40;;;1.30;;
69991;SDS011;57332;51.320;-0.580;2023-02-04T13:11:51;3.55;;;1.50;;
69991;SDS011;57332;51.320;-0.580;2023-02-04T13:14:18;4.22;;;1.30;;
69991;SDS011;57332;51.320;-0.580;2023-02-04T13:16:45;3.60;;;1.30;;
69991;SDS011;57332;51.320;-0.580;2023-02-04T13:19:12;5.43;;;1.30;;
69991;SDS011;57332;51.320;-0.580;2023-02-04T13:21:39;3.25;;;1.20;;
69991;SDS011;57332;51.320;-0.580;2023-02-04T13:24:06;4.72;;;1.30;;
69991;SDS011;57332;51.320;-0.580;2023-02-04T13:26:32;3.10;;;1.35;;
69991;SDS011;57332;51.320;-0.580;2023-02-04T13:28:59;3.28;;;1.20;;
69991;SDS011;57332;51.320;-0.580;2023-02-04T13:31:26;4.57;;;1.40;;
69991;SDS011;57332;51.320;-0.580;2023-02-04T13:33:53;3.50;;;1.48;;
69991;SDS011;57332;51.320;-0.580;2023-02-04T13:36:20;4.03;;;1.52;;
69991;SDS011;57332;51.320;-0.580;2023-02-04T13:38:47;3.72;;;1.65;;
69991;SDS011;57332;51.320;-0.580;2023-02-04T13:41:14;2.95;;;1.27;;
69991;SDS011;57332;51.320;-0.580;2023-02-04T13:43:41;5.78;;;1.60;;
69991;SDS011;57332;51.320;-0.580;2023-02-04T13:46:08;3.67;;;1.52;;
69991;SDS011;57332;51.320;-0.580;2023-02-04T13:48:35;4.43;;;1.33;;
69991;SDS011;57332;51.320;-0.580;2023-02-04T13:51:02;4.60;;;1.67;;
69991;SDS011;57332;51.320;-0.580;2023-02-04T13:53:29;3.75;;;1.73;;
69991;SDS011;57332;51.320;-0.580;2023-02-04T13:55:56;4.22;;;1.55;;
69991;SDS011;57332;51.320;-0.580;2023-02-04T13:58:23;4.55;;;1.73;;
69991;SDS011;57332;51.320;-0.580;2023-02-04T14:00:50;3.80;;;1.55;;
69991;SDS011;57332;51.320;-0.580;2023-02-04T14:03:23;4.47;;;1.73;;
69991;SDS011;57332;51.320;-0.580;2023-02-04T14:05:50;3.58;;;1.60;;
69991;SDS011;57332;51.320;-0.580;2023-02-04T14:08:17;3.15;;;1.58;;
69991;SDS011;57332;51.320;-0.580;2023-02-04T14:10:44;5.82;;;1.75;;
69991;SDS011;57332;51.320;-0.580;2023-02-04T14:13:11;5.55;;;1.70;;
69991;SDS011;57332;51.320;-0.580;2023-02-04T14:15:38;2.83;;;1.35;;
69991;SDS011;57332;51.320;-0.580;2023-02-04T14:18:07;4.15;;;1.60;;
69991;SDS011;57332;51.320;-0.580;2023-02-04T14:20:35;4.10;;;1.80;;
69991;SDS011;57332;51.320;-0.580;2023-02-04T14:23:03;5.10;;;1.70;;
69991;SDS011;57332;51.320;-0.580;2023-02-04T14:25:30;3.53;;;1.80;;
69991;SDS011;57332;51.320;-0.580;2023-02-04T14:27:56;4.28;;;1.65;;
69991;SDS011;57332;51.320;-0.580;2023-02-04T14:30:27;5.07;;;1.92;;
69991;SDS011;57332;51.320;-0.580;2023-02-04T14:32:54;6.15;;;2.33;;
69991;SDS011;57332;51.320;-0.580;2023-02-04T14:35:21;4.68;;;1.90;;
69991;SDS011;57332;51.320;-0.580;2023-02-04T14:37:48;9.45;;;1.60;;
69991;SDS011;57332;51.320;-0.580;2023-02-04T14:40:16;3.35;;;1.45;;
69991;SDS011;57332;51.320;-0.580;2023-02-04T14:42:43;2.83;;;1.50;;
69991;SDS011;57332;51.320;-0.580;2023-02-04T14:45:11;4.20;;;1.70;;
69991;SDS011;57332;51.320;-0.580;2023-02-04T14:47:38;5.40;;;1.77;;
69991;SDS011;57332;51.320;-0.580;2023-02-04T14:50:09;4.68;;;1.52;;
69991;SDS011;57332;51.320;-0.580;2023-02-04T14:52:37;2.50;;;1.33;;
69991;SDS011;57332;51.320;-0.580;2023-02-04T14:55:04;4.18;;;1.40;;
69991;SDS011;57332;51.320;-0.580;2023-02-04T14:57:30;4.60;;;1.40;;
69991;SDS011;57332;51.320;-0.580;2023-02-04T14:59:57;4.32;;;1.70;;